Terminal Aerodrome Forecast
Issued by NWS

Home | Current Version | Previous Version | Text Only | Print | Product List | Glossary On
Versions: 1 2 3 4 5 6 7 8 9 10 11 12 13 14 15 16 17 18 19 20 21 22 23 24 25 26 27 28 29 30 31 32 33
000
FTUS45 KCYS 022339
TAFLAR
TAF
KLAR 022339Z 0300/0324 09012KT P6SM VCTS SCT050CB OVC080
     FM030100 12009KT P6SM BKN150
     FM030800 16006KT P6SM SKC
     FM032000 04012KT P6SM VCTS SCT050CB BKN150=

USA.gov is the U.S. government's official web portal to all federal, state and local government web resources and services.